sensor_id;sensor_type;location;lat;lon;timestamp;temperature;humidity
42835;DHT22;29335;50.526;30.458;2022-07-29T00:02:12;20.10;89.80
42835;DHT22;29335;50.526;30.458;2022-07-29T00:04:37;20.00;89.80
42835;DHT22;29335;50.526;30.458;2022-07-29T00:07:03;20.00;89.50
42835;DHT22;29335;50.526;30.458;2022-07-29T00:09:31;20.00;89.00
42835;DHT22;29335;50.526;30.458;2022-07-29T00:11:59;20.30;88.70
42835;DHT22;29335;50.526;30.458;2022-07-29T00:14:26;19.90;88.30
42835;DHT22;29335;50.526;30.458;2022-07-29T00:16:51;19.90;88.10
42835;DHT22;29335;50.526;30.458;2022-07-29T00:19:17;19.90;87.60
42835;DHT22;29335;50.526;30.458;2022-07-29T00:21:43;19.90;87.20
42835;DHT22;29335;50.526;30.458;2022-07-29T00:24:08;19.90;86.90
42835;DHT22;29335;50.526;30.458;2022-07-29T00:26:37;19.90;86.80
42835;DHT22;29335;50.526;30.458;2022-07-29T00:29:03;19.90;87.00
42835;DHT22;29335;50.526;30.458;2022-07-29T00:31:29;19.80;87.10
42835;DHT22;29335;50.526;30.458;2022-07-29T00:33:55;19.80;87.20
42835;DHT22;29335;50.526;30.458;2022-07-29T00:36:21;19.90;87.50
42835;DHT22;29335;50.526;30.458;2022-07-29T00:38:48;19.90;87.60
42835;DHT22;29335;50.526;30.458;2022-07-29T00:41:14;19.90;87.80
42835;DHT22;29335;50.526;30.458;2022-07-29T00:43:40;19.80;87.60
42835;DHT22;29335;50.526;30.458;2022-07-29T00:46:06;19.90;87.60
42835;DHT22;29335;50.526;30.458;2022-07-29T00:48:32;19.90;87.50
42835;DHT22;29335;50.526;30.458;2022-07-29T00:50:59;19.90;87.40
42835;DHT22;29335;50.526;30.458;2022-07-29T00:53:25;19.80;87.00
42835;DHT22;29335;50.526;30.458;2022-07-29T00:55:51;19.80;87.10
42835;DHT22;29335;50.526;30.458;2022-07-29T00:58:18;19.80;87.00
42835;DHT22;29335;50.526;30.458;2022-07-29T01:00:44;19.80;87.00
42835;DHT22;29335;50.526;30.458;2022-07-29T01:03:10;19.80;87.00
42835;DHT22;29335;50.526;30.458;2022-07-29T01:05:36;19.90;87.00
42835;DHT22;29335;50.526;30.458;2022-07-29T01:08:02;19.80;86.90
42835;DHT22;29335;50.526;30.458;2022-07-29T01:10:28;19.70;86.60
42835;DHT22;29335;50.526;30.458;2022-07-29T01:12:58;19.80;86.40
42835;DHT22;29335;50.526;30.458;2022-07-29T01:15:24;19.80;86.40
42835;DHT22;29335;50.526;30.458;2022-07-29T01:26:01;19.70;86.00
42835;DHT22;29335;50.526;30.458;2022-07-29T01:34:41;19.60;85.70
42835;DHT22;29335;50.526;30.458;2022-07-29T01:37:19;19.60;85.70
42835;DHT22;29335;50.526;30.458;2022-07-29T01:39:47;19.70;85.50
42835;DHT22;29335;50.526;30.458;2022-07-29T01:42:31;19.50;85.40
42835;DHT22;29335;50.526;30.458;2022-07-29T01:45:02;20.00;85.40
42835;DHT22;29335;50.526;30.458;2022-07-29T01:48:02;19.50;85.40
42835;DHT22;29335;50.526;30.458;2022-07-29T01:50:36;19.50;85.30
42835;DHT22;29335;50.526;30.458;2022-07-29T01:53:06;19.40;85.40
42835;DHT22;29335;50.526;30.458;2022-07-29T01:55:36;19.40;85.40
42835;DHT22;29335;50.526;30.458;2022-07-29T01:58:05;19.50;85.40
42835;DHT22;29335;50.526;30.458;2022-07-29T02:00:32;19.40;85.50
42835;DHT22;29335;50.526;30.458;2022-07-29T02:03:01;19.90;85.60
42835;DHT22;29335;50.526;30.458;2022-07-29T02:05:29;19.40;85.50
42835;DHT22;29335;50.526;30.458;2022-07-29T02:07:58;19.40;85.70
42835;DHT22;29335;50.526;30.458;2022-07-29T02:10:26;19.40;85.90
42835;DHT22;29335;50.526;30.458;2022-07-29T02:12:54;19.40;86.00
42835;DHT22;29335;50.526;30.458;2022-07-29T02:15:23;19.40;86.20
42835;DHT22;29335;50.526;30.458;2022-07-29T02:17:53;19.30;86.40
42835;DHT22;29335;50.526;30.458;2022-07-29T02:20:22;19.40;86.60
42835;DHT22;29335;50.526;30.458;2022-07-29T02:22:52;19.30;86.80
42835;DHT22;29335;50.526;30.458;2022-07-29T02:25:19;19.30;87.00
42835;DHT22;29335;50.526;30.458;2022-07-29T02:27:47;19.40;87.20
42835;DHT22;29335;50.526;30.458;2022-07-29T02:30:14;19.40;87.20
42835;DHT22;29335;50.526;30.458;2022-07-29T02:32:41;19.40;87.00
42835;DHT22;29335;50.526;30.458;2022-07-29T02:35:09;19.40;86.90
42835;DHT22;29335;50.526;30.458;2022-07-29T02:37:36;19.50;87.00
42835;DHT22;29335;50.526;30.458;2022-07-29T02:40:03;19.60;86.60
42835;DHT22;29335;50.526;30.458;2022-07-29T02:42:31;19.70;86.40
42835;DHT22;29335;50.526;30.458;2022-07-29T02:44:57;20.10;86.40
42835;DHT22;29335;50.526;30.458;2022-07-29T02:50:34;20.00;86.00
42835;DHT22;29335;50.526;30.458;2022-07-29T02:53:07;20.20;86.00
42835;DHT22;29335;50.526;30.458;2022-07-29T02:55:37;20.30;85.70
42835;DHT22;29335;50.526;30.458;2022-07-29T02:58:27;20.50;85.50
42835;DHT22;29335;50.526;30.458;2022-07-29T03:00:57;20.80;85.10
42835;DHT22;29335;50.526;30.458;2022-07-29T03:03:26;20.90;84.30
42835;DHT22;29335;50.526;30.458;2022-07-29T03:05:58;21.20;83.70
42835;DHT22;29335;50.526;30.458;2022-07-29T03:08:26;21.20;83.30
42835;DHT22;29335;50.526;30.458;2022-07-29T03:10:52;21.40;82.70
42835;DHT22;29335;50.526;30.458;2022-07-29T03:13:19;21.60;82.20
42835;DHT22;29335;50.526;30.458;2022-07-29T03:15:45;21.70;81.70
42835;DHT22;29335;50.526;30.458;2022-07-29T03:18:11;21.80;81.70
42835;DHT22;29335;50.526;30.458;2022-07-29T03:20:38;21.90;81.00
42835;DHT22;29335;50.526;30.458;2022-07-29T03:23:04;22.10;80.60
42835;DHT22;29335;50.526;30.458;2022-07-29T03:25:30;23.10;80.60
42835;DHT22;29335;50.526;30.458;2022-07-29T03:27:56;22.30;79.60
42835;DHT22;29335;50.526;30.458;2022-07-29T03:30:23;22.50;79.40
42835;DHT22;29335;50.526;30.458;2022-07-29T03:32:49;22.50;79.60
42835;DHT22;29335;50.526;30.458;2022-07-29T03:35:15;22.70;79.60
42835;DHT22;29335;50.526;30.458;2022-07-29T03:37:45;22.90;79.70
42835;DHT22;29335;50.526;30.458;2022-07-29T03:40:14;23.00;79.40
42835;DHT22;29335;50.526;30.458;2022-07-29T03:42:42;23.20;78.80
42835;DHT22;29335;50.526;30.458;2022-07-29T03:45:12;23.30;78.00
42835;DHT22;29335;50.526;30.458;2022-07-29T03:47:42;23.30;78.30
42835;DHT22;29335;50.526;30.458;2022-07-29T03:50:11;23.40;77.80
42835;DHT22;29335;50.526;30.458;2022-07-29T03:52:39;23.60;77.20
42835;DHT22;29335;50.526;30.458;2022-07-29T03:55:06;24.40;77.10
42835;DHT22;29335;50.526;30.458;2022-07-29T03:57:32;23.70;76.60
42835;DHT22;29335;50.526;30.458;2022-07-29T04:00:00;23.70;76.80
42835;DHT22;29335;50.526;30.458;2022-07-29T04:02:26;23.70;77.30
42835;DHT22;29335;50.526;30.458;2022-07-29T04:04:52;23.90;76.60
42835;DHT22;29335;50.526;30.458;2022-07-29T04:07:18;23.90;76.40
42835;DHT22;29335;50.526;30.458;2022-07-29T04:09:44;24.00;76.10
42835;DHT22;29335;50.526;30.458;2022-07-29T04:12:09;24.00;76.10
42835;DHT22;29335;50.526;30.458;2022-07-29T04:14:35;24.10;75.70
42835;DHT22;29335;50.526;30.458;2022-07-29T04:17:02;24.30;75.30
42835;DHT22;29335;50.526;30.458;2022-07-29T04:19:28;24.50;75.10
42835;DHT22;29335;50.526;30.458;2022-07-29T04:21:54;24.60;74.80
42835;DHT22;29335;50.526;30.458;2022-07-29T04:24:19;25.90;76.60
42835;DHT22;29335;50.526;30.458;2022-07-29T04:26:46;25.80;76.80
42835;DHT22;29335;50.526;30.458;2022-07-29T04:29:11;24.70;77.50
42835;DHT22;29335;50.526;30.458;2022-07-29T04:31:39;24.70;79.90
42835;DHT22;29335;50.526;30.458;2022-07-29T04:34:05;24.60;81.00
42835;DHT22;29335;50.526;30.458;2022-07-29T04:36:30;24.60;80.50
42835;DHT22;29335;50.526;30.458;2022-07-29T04:38:56;24.60;80.20
42835;DHT22;29335;50.526;30.458;2022-07-29T04:41:22;24.70;79.40
42835;DHT22;29335;50.526;30.458;2022-07-29T04:43:47;24.60;79.10
42835;DHT22;29335;50.526;30.458;2022-07-29T04:46:13;24.80;80.50
42835;DHT22;29335;50.526;30.458;2022-07-29T04:48:38;24.80;79.60
42835;DHT22;29335;50.526;30.458;2022-07-29T04:51:04;24.70;80.00
42835;DHT22;29335;50.526;30.458;2022-07-29T04:53:30;24.70;80.30
42835;DHT22;29335;50.526;30.458;2022-07-29T04:55:55;24.90;80.30
42835;DHT22;29335;50.526;30.458;2022-07-29T04:58:21;24.90;79.30
42835;DHT22;29335;50.526;30.458;2022-07-29T05:00:49;25.00;78.90
42835;DHT22;29335;50.526;30.458;2022-07-29T05:03:14;25.00;77.40
42835;DHT22;29335;50.526;30.458;2022-07-29T05:05:40;25.10;77.30
42835;DHT22;29335;50.526;30.458;2022-07-29T05:08:06;25.20;77.10
42835;DHT22;29335;50.526;30.458;2022-07-29T05:10:32;25.30;78.30
42835;DHT22;29335;50.526;30.458;2022-07-29T05:12:59;25.50;78.20
42835;DHT22;29335;50.526;30.458;2022-07-29T05:15:24;25.50;77.30
42835;DHT22;29335;50.526;30.458;2022-07-29T05:17:50;25.60;76.60
42835;DHT22;29335;50.526;30.458;2022-07-29T05:20:16;25.90;75.10
42835;DHT22;29335;50.526;30.458;2022-07-29T05:22:41;26.30;72.40
42835;DHT22;29335;50.526;30.458;2022-07-29T05:25:07;26.10;70.70
42835;DHT22;29335;50.526;30.458;2022-07-29T05:27:35;26.10;70.80
42835;DHT22;29335;50.526;30.458;2022-07-29T05:30:00;26.10;71.30
42835;DHT22;29335;50.526;30.458;2022-07-29T05:32:26;26.30;71.10
42835;DHT22;29335;50.526;30.458;2022-07-29T05:34:52;26.30;70.70
42835;DHT22;29335;50.526;30.458;2022-07-29T05:37:20;26.60;70.30
42835;DHT22;29335;50.526;30.458;2022-07-29T05:39:46;26.60;70.10
42835;DHT22;29335;50.526;30.458;2022-07-29T05:42:12;26.70;69.60
42835;DHT22;29335;50.526;30.458;2022-07-29T05:44:38;26.80;69.50
42835;DHT22;29335;50.526;30.458;2022-07-29T05:47:04;26.80;69.00
42835;DHT22;29335;50.526;30.458;2022-07-29T05:49:30;26.90;68.60
42835;DHT22;29335;50.526;30.458;2022-07-29T05:51:56;27.10;67.70
42835;DHT22;29335;50.526;30.458;2022-07-29T05:54:22;27.10;66.30
42835;DHT22;29335;50.526;30.458;2022-07-29T05:56:47;27.10;64.50
42835;DHT22;29335;50.526;30.458;2022-07-29T05:59:13;27.10;63.30
42835;DHT22;29335;50.526;30.458;2022-07-29T06:01:38;26.90;63.70
42835;DHT22;29335;50.526;30.458;2022-07-29T06:04:06;27.00;63.60
42835;DHT22;29335;50.526;30.458;2022-07-29T06:06:32;26.90;63.30
42835;DHT22;29335;50.526;30.458;2022-07-29T06:08:59;26.80;63.20
42835;DHT22;29335;50.526;30.458;2022-07-29T06:11:24;26.80;63.20
42835;DHT22;29335;50.526;30.458;2022-07-29T06:13:50;26.80;63.50
42835;DHT22;29335;50.526;30.458;2022-07-29T06:16:15;26.90;63.10
42835;DHT22;29335;50.526;30.458;2022-07-29T06:18:41;27.00;62.90
42835;DHT22;29335;50.526;30.458;2022-07-29T06:21:10;27.10;62.60
42835;DHT22;29335;50.526;30.458;2022-07-29T06:23:37;27.20;62.20
42835;DHT22;29335;50.526;30.458;2022-07-29T06:26:03;27.20;62.00
42835;DHT22;29335;50.526;30.458;2022-07-29T06:28:28;27.10;61.70
42835;DHT22;29335;50.526;30.458;2022-07-29T06:30:54;26.90;62.10
42835;DHT22;29335;50.526;30.458;2022-07-29T06:33:20;26.80;62.20
42835;DHT22;29335;50.526;30.458;2022-07-29T06:35:45;26.70;62.30
42835;DHT22;29335;50.526;30.458;2022-07-29T06:38:13;26.60;62.30
42835;DHT22;29335;50.526;30.458;2022-07-29T06:40:43;26.60;62.60
42835;DHT22;29335;50.526;30.458;2022-07-29T06:43:30;26.60;62.30
42835;DHT22;29335;50.526;30.458;2022-07-29T06:46:01;26.50;62.30
42835;DHT22;29335;50.526;30.458;2022-07-29T06:48:28;26.50;62.00
42835;DHT22;29335;50.526;30.458;2022-07-29T06:50:54;26.40;62.10
42835;DHT22;29335;50.526;30.458;2022-07-29T06:53:20;26.50;62.10
42835;DHT22;29335;50.526;30.458;2022-07-29T06:55:45;26.50;62.00
42835;DHT22;29335;50.526;30.458;2022-07-29T06:58:11;26.50;62.50
42835;DHT22;29335;50.526;30.458;2022-07-29T07:00:37;26.60;62.40
42835;DHT22;29335;50.526;30.458;2022-07-29T07:03:03;26.60;62.20
42835;DHT22;29335;50.526;30.458;2022-07-29T07:05:28;26.70;62.20
42835;DHT22;29335;50.526;30.458;2022-07-29T07:07:54;26.80;62.00
42835;DHT22;29335;50.526;30.458;2022-07-29T07:10:20;26.80;62.10
42835;DHT22;29335;50.526;30.458;2022-07-29T07:12:45;26.90;62.00
42835;DHT22;29335;50.526;30.458;2022-07-29T07:15:11;26.90;61.30
42835;DHT22;29335;50.526;30.458;2022-07-29T07:17:36;26.80;61.30
42835;DHT22;29335;50.526;30.458;2022-07-29T07:20:04;26.70;61.40
42835;DHT22;29335;50.526;30.458;2022-07-29T07:22:30;26.80;60.70
42835;DHT22;29335;50.526;30.458;2022-07-29T07:24:56;26.70;61.20
42835;DHT22;29335;50.526;30.458;2022-07-29T07:27:21;26.60;61.50
42835;DHT22;29335;50.526;30.458;2022-07-29T07:29:47;26.70;61.70
42835;DHT22;29335;50.526;30.458;2022-07-29T07:32:12;26.60;61.60
42835;DHT22;29335;50.526;30.458;2022-07-29T07:34:39;26.60;61.70
42835;DHT22;29335;50.526;30.458;2022-07-29T07:37:05;26.70;61.60
42835;DHT22;29335;50.526;30.458;2022-07-29T07:39:31;26.90;61.70
42835;DHT22;29335;50.526;30.458;2022-07-29T07:41:56;26.80;61.40
42835;DHT22;29335;50.526;30.458;2022-07-29T07:44:22;26.70;61.30
42835;DHT22;29335;50.526;30.458;2022-07-29T07:46:47;26.60;61.80
42835;DHT22;29335;50.526;30.458;2022-07-29T07:49:13;26.60;62.10
42835;DHT22;29335;50.526;30.458;2022-07-29T07:51:38;26.60;62.40
42835;DHT22;29335;50.526;30.458;2022-07-29T07:54:04;26.70;62.30
42835;DHT22;29335;50.526;30.458;2022-07-29T07:56:30;26.80;62.00
42835;DHT22;29335;50.526;30.458;2022-07-29T07:58:55;26.80;62.30
42835;DHT22;29335;50.526;30.458;2022-07-29T08:01:21;26.90;62.40
42835;DHT22;29335;50.526;30.458;2022-07-29T08:03:49;26.90;62.20
42835;DHT22;29335;50.526;30.458;2022-07-29T08:06:15;27.00;61.80
42835;DHT22;29335;50.526;30.458;2022-07-29T08:08:40;27.00;61.80
42835;DHT22;29335;50.526;30.458;2022-07-29T08:11:06;27.00;61.60
42835;DHT22;29335;50.526;30.458;2022-07-29T08:13:32;27.00;61.50
42835;DHT22;29335;50.526;30.458;2022-07-29T08:15:59;26.90;61.30
42835;DHT22;29335;50.526;30.458;2022-07-29T08:18:36;26.90;61.30
42835;DHT22;29335;50.526;30.458;2022-07-29T08:21:02;26.80;61.40
42835;DHT22;29335;50.526;30.458;2022-07-29T08:23:28;26.90;61.30
42835;DHT22;29335;50.526;30.458;2022-07-29T08:26:08;26.80;61.70
42835;DHT22;29335;50.526;30.458;2022-07-29T08:28:40;26.90;61.90
42835;DHT22;29335;50.526;30.458;2022-07-29T08:31:06;26.90;62.30
42835;DHT22;29335;50.526;30.458;2022-07-29T08:33:33;26.80;61.80
42835;DHT22;29335;50.526;30.458;2022-07-29T08:35:58;26.90;61.70
42835;DHT22;29335;50.526;30.458;2022-07-29T08:38:24;27.00;61.70
42835;DHT22;29335;50.526;30.458;2022-07-29T08:40:52;27.20;61.60
42835;DHT22;29335;50.526;30.458;2022-07-29T08:43:18;27.40;61.20
42835;DHT22;29335;50.526;30.458;2022-07-29T08:45:49;27.40;61.00
42835;DHT22;29335;50.526;30.458;2022-07-29T08:48:21;27.50;60.70
42835;DHT22;29335;50.526;30.458;2022-07-29T08:50:47;27.50;60.70
42835;DHT22;29335;50.526;30.458;2022-07-29T08:53:16;27.50;61.10
42835;DHT22;29335;50.526;30.458;2022-07-29T08:55:44;27.60;60.80
42835;DHT22;29335;50.526;30.458;2022-07-29T08:58:10;27.60;60.70
42835;DHT22;29335;50.526;30.458;2022-07-29T09:00:39;27.80;60.80
42835;DHT22;29335;50.526;30.458;2022-07-29T09:03:06;27.90;61.00
42835;DHT22;29335;50.526;30.458;2022-07-29T09:05:34;28.00;61.00
42835;DHT22;29335;50.526;30.458;2022-07-29T09:08:01;28.00;60.90
42835;DHT22;29335;50.526;30.458;2022-07-29T09:10:27;28.10;60.60
42835;DHT22;29335;50.526;30.458;2022-07-29T09:12:54;28.10;60.50
42835;DHT22;29335;50.526;30.458;2022-07-29T09:15:20;28.10;60.50
42835;DHT22;29335;50.526;30.458;2022-07-29T09:17:48;28.10;60.40
42835;DHT22;29335;50.526;30.458;2022-07-29T09:20:18;28.10;61.00
42835;DHT22;29335;50.526;30.458;2022-07-29T09:22:44;28.20;61.10
42835;DHT22;29335;50.526;30.458;2022-07-29T09:25:14;28.20;60.70
42835;DHT22;29335;50.526;30.458;2022-07-29T09:27:40;28.20;60.50
42835;DHT22;29335;50.526;30.458;2022-07-29T09:30:10;28.20;60.70
42835;DHT22;29335;50.526;30.458;2022-07-29T09:35:24;28.30;60.90
42835;DHT22;29335;50.526;30.458;2022-07-29T09:37:50;28.30;61.20
42835;DHT22;29335;50.526;30.458;2022-07-29T09:40:27;28.30;61.20
42835;DHT22;29335;50.526;30.458;2022-07-29T09:42:54;28.50;60.40
42835;DHT22;29335;50.526;30.458;2022-07-29T09:45:30;28.50;60.30
42835;DHT22;29335;50.526;30.458;2022-07-29T09:47:57;28.50;60.00
42835;DHT22;29335;50.526;30.458;2022-07-29T09:50:42;28.90;59.60
42835;DHT22;29335;50.526;30.458;2022-07-29T09:53:09;28.80;59.00
42835;DHT22;29335;50.526;30.458;2022-07-29T09:55:51;28.30;60.00
42835;DHT22;29335;50.526;30.458;2022-07-29T09:58:20;28.30;60.60
42835;DHT22;29335;50.526;30.458;2022-07-29T10:00:47;28.20;60.90
42835;DHT22;29335;50.526;30.458;2022-07-29T10:03:13;28.30;60.90
42835;DHT22;29335;50.526;30.458;2022-07-29T10:05:39;28.50;60.90
42835;DHT22;29335;50.526;30.458;2022-07-29T10:08:06;28.60;60.40
42835;DHT22;29335;50.526;30.458;2022-07-29T10:10:35;28.70;60.10
42835;DHT22;29335;50.526;30.458;2022-07-29T10:13:07;28.80;59.80
42835;DHT22;29335;50.526;30.458;2022-07-29T10:15:36;28.80;59.70
42835;DHT22;29335;50.526;30.458;2022-07-29T10:18:04;28.90;59.60
42835;DHT22;29335;50.526;30.458;2022-07-29T10:20:29;28.80;60.20
42835;DHT22;29335;50.526;30.458;2022-07-29T10:22:55;28.80;59.80
42835;DHT22;29335;50.526;30.458;2022-07-29T10:25:22;29.00;60.00
42835;DHT22;29335;50.526;30.458;2022-07-29T10:27:48;29.00;59.00
42835;DHT22;29335;50.526;30.458;2022-07-29T10:30:17;29.10;59.40
42835;DHT22;29335;50.526;30.458;2022-07-29T10:36:15;29.50;58.90
42835;DHT22;29335;50.526;30.458;2022-07-29T10:46:24;29.20;59.00
42835;DHT22;29335;50.526;30.458;2022-07-29T10:51:53;28.40;60.40
42835;DHT22;29335;50.526;30.458;2022-07-29T10:54:44;28.40;60.80
42835;DHT22;29335;50.526;30.458;2022-07-29T10:59:44;28.30;60.70
42835;DHT22;29335;50.526;30.458;2022-07-29T11:07:24;28.50;60.70
42835;DHT22;29335;50.526;30.458;2022-07-29T11:15:13;28.60;60.30
42835;DHT22;29335;50.526;30.458;2022-07-29T11:20:42;28.50;60.60
42835;DHT22;29335;50.526;30.458;2022-07-29T11:23:24;28.50;60.20
42835;DHT22;29335;50.526;30.458;2022-07-29T11:29:03;28.60;60.00
42835;DHT22;29335;50.526;30.458;2022-07-29T11:31:38;28.30;60.90
42835;DHT22;29335;50.526;30.458;2022-07-29T11:34:25;28.30;60.60
42835;DHT22;29335;50.526;30.458;2022-07-29T11:37:20;28.70;60.30
42835;DHT22;29335;50.526;30.458;2022-07-29T11:44:56;28.80;59.40
42835;DHT22;29335;50.526;30.458;2022-07-29T11:47:23;28.70;60.00
42835;DHT22;29335;50.526;30.458;2022-07-29T11:49:50;28.50;60.50
42835;DHT22;29335;50.526;30.458;2022-07-29T11:52:19;28.60;60.70
42835;DHT22;29335;50.526;30.458;2022-07-29T11:54:48;29.10;59.70
42835;DHT22;29335;50.526;30.458;2022-07-29T11:57:16;29.10;60.20
42835;DHT22;29335;50.526;30.458;2022-07-29T11:59:44;28.90;60.20
42835;DHT22;29335;50.526;30.458;2022-07-29T12:02:11;28.90;59.80
42835;DHT22;29335;50.526;30.458;2022-07-29T12:04:50;28.80;60.00
42835;DHT22;29335;50.526;30.458;2022-07-29T12:07:16;28.70;60.30
42835;DHT22;29335;50.526;30.458;2022-07-29T12:09:52;28.90;60.20
42835;DHT22;29335;50.526;30.458;2022-07-29T12:12:18;29.00;60.10
42835;DHT22;29335;50.526;30.458;2022-07-29T12:14:44;29.10;59.80
42835;DHT22;29335;50.526;30.458;2022-07-29T12:17:27;29.10;59.60
42835;DHT22;29335;50.526;30.458;2022-07-29T12:19:57;28.90;59.80
42835;DHT22;29335;50.526;30.458;2022-07-29T12:22:30;29.00;60.00
42835;DHT22;29335;50.526;30.458;2022-07-29T12:25:01;29.00;59.70
42835;DHT22;29335;50.526;30.458;2022-07-29T12:27:28;29.00;59.70
42835;DHT22;29335;50.526;30.458;2022-07-29T12:29:58;28.90;60.00
42835;DHT22;29335;50.526;30.458;2022-07-29T12:32:32;28.90;60.20
42835;DHT22;29335;50.526;30.458;2022-07-29T12:34:58;28.80;60.60
42835;DHT22;29335;50.526;30.458;2022-07-29T12:37:24;28.60;61.10
42835;DHT22;29335;50.526;30.458;2022-07-29T12:39:49;28.60;61.70
42835;DHT22;29335;50.526;30.458;2022-07-29T12:42:15;28.60;62.20
42835;DHT22;29335;50.526;30.458;2022-07-29T12:44:49;28.60;61.50
42835;DHT22;29335;50.526;30.458;2022-07-29T12:47:15;28.50;61.20
42835;DHT22;29335;50.526;30.458;2022-07-29T12:49:41;28.30;61.40
42835;DHT22;29335;50.526;30.458;2022-07-29T12:52:30;28.20;61.80
42835;DHT22;29335;50.526;30.458;2022-07-29T12:54:56;28.30;61.20
42835;DHT22;29335;50.526;30.458;2022-07-29T12:57:22;28.20;61.70
42835;DHT22;29335;50.526;30.458;2022-07-29T13:00:06;28.20;61.60
42835;DHT22;29335;50.526;30.458;2022-07-29T13:02:34;28.20;62.60
42835;DHT22;29335;50.526;30.458;2022-07-29T13:05:00;28.30;62.40
42835;DHT22;29335;50.526;30.458;2022-07-29T13:07:28;28.20;63.10
42835;DHT22;29335;50.526;30.458;2022-07-29T13:10:14;28.30;62.90
42835;DHT22;29335;50.526;30.458;2022-07-29T13:15:28;28.30;62.80
42835;DHT22;29335;50.526;30.458;2022-07-29T13:17:54;28.30;62.70
42835;DHT22;29335;50.526;30.458;2022-07-29T13:20:24;28.30;62.80
42835;DHT22;29335;50.526;30.458;2022-07-29T13:22:50;28.20;63.40
42835;DHT22;29335;50.526;30.458;2022-07-29T13:25:30;28.20;62.80
42835;DHT22;29335;50.526;30.458;2022-07-29T13:27:58;28.20;63.50
42835;DHT22;29335;50.526;30.458;2022-07-29T13:30:24;28.30;63.10
42835;DHT22;29335;50.526;30.458;2022-07-29T13:32:51;28.10;62.50
42835;DHT22;29335;50.526;30.458;2022-07-29T13:35:16;28.00;62.50
42835;DHT22;29335;50.526;30.458;2022-07-29T13:37:42;27.90;62.80
42835;DHT22;29335;50.526;30.458;2022-07-29T13:40:09;27.80;63.20
42835;DHT22;29335;50.526;30.458;2022-07-29T13:42:35;27.80;63.70
42835;DHT22;29335;50.526;30.458;2022-07-29T13:45:02;27.80;64.10
42835;DHT22;29335;50.526;30.458;2022-07-29T13:47:28;27.70;64.20
42835;DHT22;29335;50.526;30.458;2022-07-29T13:49:56;27.70;64.20
42835;DHT22;29335;50.526;30.458;2022-07-29T13:52:21;27.60;64.20
42835;DHT22;29335;50.526;30.458;2022-07-29T13:54:47;27.40;64.20
42835;DHT22;29335;50.526;30.458;2022-07-29T13:57:13;27.40;64.10
42835;DHT22;29335;50.526;30.458;2022-07-29T13:59:41;27.30;64.90
42835;DHT22;29335;50.526;30.458;2022-07-29T14:02:07;27.40;64.20
42835;DHT22;29335;50.526;30.458;2022-07-29T14:04:33;27.40;64.40
42835;DHT22;29335;50.526;30.458;2022-07-29T14:06:59;27.30;64.30
42835;DHT22;29335;50.526;30.458;2022-07-29T14:09:24;27.30;64.20
42835;DHT22;29335;50.526;30.458;2022-07-29T14:11:50;27.40;64.50
42835;DHT22;29335;50.526;30.458;2022-07-29T14:14:16;27.50;64.70
42835;DHT22;29335;50.526;30.458;2022-07-29T14:16:42;27.50;65.00
42835;DHT22;29335;50.526;30.458;2022-07-29T14:19:08;27.60;64.70
42835;DHT22;29335;50.526;30.458;2022-07-29T14:21:33;27.60;64.60
42835;DHT22;29335;50.526;30.458;2022-07-29T14:24:00;27.60;64.40
42835;DHT22;29335;50.526;30.458;2022-07-29T14:26:25;27.60;64.30
42835;DHT22;29335;50.526;30.458;2022-07-29T14:28:52;27.60;64.20
42835;DHT22;29335;50.526;30.458;2022-07-29T14:31:18;27.60;63.90
42835;DHT22;29335;50.526;30.458;2022-07-29T14:33:44;27.60;64.60
42835;DHT22;29335;50.526;30.458;2022-07-29T14:36:09;27.60;64.00
42835;DHT22;29335;50.526;30.458;2022-07-29T14:38:36;27.70;64.10
42835;DHT22;29335;50.526;30.458;2022-07-29T14:41:02;27.70;64.00
42835;DHT22;29335;50.526;30.458;2022-07-29T14:43:28;27.70;63.80
42835;DHT22;29335;50.526;30.458;2022-07-29T14:45:54;27.80;63.80
42835;DHT22;29335;50.526;30.458;2022-07-29T14:48:19;27.90;63.70
42835;DHT22;29335;50.526;30.458;2022-07-29T14:50:45;27.90;63.70
42835;DHT22;29335;50.526;30.458;2022-07-29T14:53:10;27.80;63.50
42835;DHT22;29335;50.526;30.458;2022-07-29T14:55:38;27.80;63.80
42835;DHT22;29335;50.526;30.458;2022-07-29T14:58:04;27.80;64.00
42835;DHT22;29335;50.526;30.458;2022-07-29T15:00:30;27.80;63.90
42835;DHT22;29335;50.526;30.458;2022-07-29T15:02:58;27.80;63.80
42835;DHT22;29335;50.526;30.458;2022-07-29T15:05:24;27.80;64.00
42835;DHT22;29335;50.526;30.458;2022-07-29T15:07:50;27.90;64.20
42835;DHT22;29335;50.526;30.458;2022-07-29T15:10:16;27.90;64.30
42835;DHT22;29335;50.526;30.458;2022-07-29T15:12:42;27.90;64.60
42835;DHT22;29335;50.526;30.458;2022-07-29T15:15:07;28.00;64.10
42835;DHT22;29335;50.526;30.458;2022-07-29T15:17:34;27.90;64.10
42835;DHT22;29335;50.526;30.458;2022-07-29T15:19:59;27.90;64.00
42835;DHT22;29335;50.526;30.458;2022-07-29T15:22:25;27.80;63.60
42835;DHT22;29335;50.526;30.458;2022-07-29T15:24:50;27.80;63.60
42835;DHT22;29335;50.526;30.458;2022-07-29T15:27:16;27.80;63.60
42835;DHT22;29335;50.526;30.458;2022-07-29T15:29:42;27.80;64.00
42835;DHT22;29335;50.526;30.458;2022-07-29T15:32:08;27.80;63.70
42835;DHT22;29335;50.526;30.458;2022-07-29T15:34:35;27.80;63.40
42835;DHT22;29335;50.526;30.458;2022-07-29T15:37:00;27.90;63.50
42835;DHT22;29335;50.526;30.458;2022-07-29T15:39:26;27.90;63.50
42835;DHT22;29335;50.526;30.458;2022-07-29T15:41:52;27.90;64.00
42835;DHT22;29335;50.526;30.458;2022-07-29T15:44:18;27.80;64.10
42835;DHT22;29335;50.526;30.458;2022-07-29T15:46:44;27.80;64.60
42835;DHT22;29335;50.526;30.458;2022-07-29T15:49:29;27.70;64.80
42835;DHT22;29335;50.526;30.458;2022-07-29T15:52:02;27.70;64.40
42835;DHT22;29335;50.526;30.458;2022-07-29T15:54:28;27.70;64.50
42835;DHT22;29335;50.526;30.458;2022-07-29T15:56:55;27.60;64.60
42835;DHT22;29335;50.526;30.458;2022-07-29T15:59:21;27.50;64.60
42835;DHT22;29335;50.526;30.458;2022-07-29T16:01:47;27.50;64.80
42835;DHT22;29335;50.526;30.458;2022-07-29T16:04:13;27.40;64.80
42835;DHT22;29335;50.526;30.458;2022-07-29T16:06:39;27.30;65.20
42835;DHT22;29335;50.526;30.458;2022-07-29T16:09:04;27.40;65.40
42835;DHT22;29335;50.526;30.458;2022-07-29T16:11:30;27.50;65.70
42835;DHT22;29335;50.526;30.458;2022-07-29T16:13:57;27.40;65.80
42835;DHT22;29335;50.526;30.458;2022-07-29T16:16:22;27.40;66.00
42835;DHT22;29335;50.526;30.458;2022-07-29T16:18:48;27.40;66.30
42835;DHT22;29335;50.526;30.458;2022-07-29T16:21:14;27.30;66.10